Terminal Aerodrome Forecast
Issued by NWS

Home | Current Version | Previous Version | Text Only | Print | Product List | Glossary On
Versions: 1 2 3 4 5 6 7 8 9 10 11 12 13 14 15 16 17 18
000
FTUS46 KPDT 241100
TAFDLS
TAF
KDLS 241137Z 2412/2512 29005KT P6SM -SHRA FEW050 BKN070 OVC090
     FM241600 31011KT P6SM -SHRA BKN060 OVC080
     FM242100 31017G25KT P6SM SCT070 SCT090
     FM250200 30011G16KT P6SM SCT070
     FM250500 29006KT P6SM BKN120 BKN200=

USA.gov is the U.S. government's official web portal to all federal, state and local government web resources and services.